Time;durP1;ratioP1;P1;durP2;ratioP2;P2;SDS_P1;SDS_P2;PMS_P1;PMS_P2;Temp;Humidity;BMP_temperature;BMP_pressure;BME280_temperature;BME280_humidity;BME280_pressure;Samples;Min_cycle;Max_cycle;Signal;HPM_P1;HPM_P2
2021/11/01 00:02:18;;;;;;;14.27;9.10;;;7.30;99.90;;;;;;5002081;28;20176;-58
2021/11/01 00:04:44;;;;;;;14.13;8.33;;;7.30;99.90;;;;;;5000037;28;20204;-58
2021/11/01 00:07:11;;;;;;;11.57;8.53;;;7.30;99.90;;;;;;5000864;28;20427;-58
2021/11/01 00:09:37;;;;;;;12.83;8.70;;;7.30;99.90;;;;;;5002630;28;20427;-58
2021/11/01 00:12:04;;;;;;;16.50;7.60;;;7.20;99.90;;;;;;5002045;28;20472;-60
2021/11/01 00:14:29;;;;;;;13.10;8.37;;;7.20;99.90;;;;;;5000545;28;20277;-58
2021/11/01 00:16:55;;;;;;;12.50;8.23;;;7.20;99.90;;;;;;5005206;28;20474;-58
2021/11/01 00:19:27;;;;;;;14.20;7.93;;;7.20;99.90;;;;;;5004110;28;21932;-58
2021/11/01 00:21:53;;;;;;;12.13;8.27;;;7.20;99.90;;;;;;5002790;28;20194;-59
2021/11/01 00:24:19;;;;;;;11.23;8.67;;;7.20;99.90;;;;;;5004863;28;21413;-59
2021/11/01 00:26:45;;;;;;;15.13;9.60;;;7.20;99.90;;;;;;5005580;28;20200;-59
2021/11/01 00:29:11;;;;;;;13.13;8.97;;;7.20;99.90;;;;;;5004209;28;20461;-59
2021/11/01 00:31:37;;;;;;;17.67;8.70;;;7.20;99.90;;;;;;5004556;28;20264;-57
2021/11/01 00:34:03;;;;;;;13.47;9.33;;;7.20;99.90;;;;;;5013330;28;20459;-58
2021/11/01 00:36:29;;;;;;;14.00;8.40;;;7.20;99.90;;;;;;5018875;28;20672;-57
2021/11/01 00:38:55;;;;;;;12.50;8.20;;;7.30;99.90;;;;;;5023757;28;20431;-58
2021/11/01 00:41:21;;;;;;;13.83;8.43;;;7.30;99.90;;;;;;5023441;28;20173;-59
2021/11/01 00:43:47;;;;;;;15.13;8.27;;;7.30;99.90;;;;;;5014568;28;20498;-58
2021/11/01 00:46:13;;;;;;;12.67;8.07;;;7.30;99.90;;;;;;5004348;28;21156;-58
2021/11/01 00:48:39;;;;;;;13.13;9.30;;;7.40;99.90;;;;;;5009873;28;20177;-58
2021/11/01 00:51:04;;;;;;;13.73;8.93;;;7.40;99.90;;;;;;5019917;28;20418;-59
2021/11/01 00:53:32;;;;;;;13.50;9.27;;;7.40;99.90;;;;;;5009173;28;20585;-58
2021/11/01 00:55:59;;;;;;;14.23;8.83;;;7.40;99.90;;;;;;5008473;28;20180;-59
2021/11/01 00:58:25;;;;;;;14.93;8.93;;;7.40;99.90;;;;;;5009562;28;20446;-60
2021/11/01 01:00:52;;;;;;;16.77;8.90;;;7.40;99.90;;;;;;5007770;28;20514;-59
2021/11/01 01:03:18;;;;;;;15.03;10.37;;;7.40;99.90;;;;;;5007232;28;20448;-57
2021/11/01 01:05:45;;;;;;;11.30;8.97;;;7.40;99.90;;;;;;5006131;28;20606;-57
2021/11/01 01:08:13;;;;;;;12.60;9.10;;;7.40;99.90;;;;;;5009175;28;20427;-59
2021/11/01 01:10:40;;;;;;;11.93;8.80;;;7.50;99.90;;;;;;5010019;28;20512;-58
2021/11/01 01:13:06;;;;;;;28.20;10.83;;;7.50;99.90;;;;;;5024781;28;20836;-59
2021/11/01 01:15:58;;;;;;;10.60;7.70;;;7.50;99.90;;;;;;5002391;28;20459;-58
2021/11/01 01:18:25;;;;;;;13.80;9.10;;;7.50;99.90;;;;;;5006833;28;20814;-59
2021/11/01 01:20:51;;;;;;;13.17;8.70;;;7.50;99.90;;;;;;5005813;28;20427;-60
2021/11/01 01:23:18;;;;;;;14.37;8.70;;;7.50;99.90;;;;;;5003749;28;20458;-58
2021/11/01 01:25:47;;;;;;;10.87;7.77;;;7.60;99.90;;;;;;5003895;28;20208;-61
2021/11/01 01:28:14;;;;;;;10.20;7.73;;;7.50;99.90;;;;;;5020005;28;20493;-58
2021/11/01 01:30:41;;;;;;;11.60;7.80;;;7.50;99.90;;;;;;5024516;28;20725;-61
2021/11/01 01:33:10;;;;;;;10.10;7.60;;;7.60;99.90;;;;;;5026297;28;20447;-61
2021/11/01 01:35:40;;;;;;;13.30;9.07;;;7.60;99.90;;;;;;5024802;28;20462;-62
2021/11/01 01:38:06;;;;;;;10.40;7.63;;;7.60;99.90;;;;;;5013863;28;20439;-61
2021/11/01 01:40:33;;;;;;;16.47;8.10;;;7.60;99.90;;;;;;5003517;28;20439;-61
2021/11/01 01:42:58;;;;;;;10.20;8.37;;;7.70;99.90;;;;;;5003356;28;20436;-57
2021/11/01 01:45:24;;;;;;;15.10;8.70;;;7.60;99.90;;;;;;5005100;28;20482;-58
2021/11/01 01:47:50;;;;;;;11.70;8.47;;;7.70;99.90;;;;;;5004534;28;20527;-56
2021/11/01 01:50:17;;;;;;;13.60;8.90;;;7.70;99.90;;;;;;5001096;28;20762;-59
2021/11/01 01:52:43;;;;;;;14.70;8.23;;;7.70;99.90;;;;;;5005605;28;20424;-57
2021/11/01 01:55:12;;;;;;;11.87;8.20;;;7.70;99.90;;;;;;5018256;28;20454;-57
2021/11/01 01:57:38;;;;;;;11.00;8.83;;;7.70;99.90;;;;;;5007072;28;20434;-57
2021/11/01 02:00:09;;;;;;;10.77;7.80;;;7.60;99.90;;;;;;5005459;28;20436;-56
2021/11/01 02:02:38;;;;;;;10.17;7.50;;;7.60;99.90;;;;;;5003101;28;20177;-57
2021/11/01 02:05:04;;;;;;;9.57;7.20;;;7.60;99.90;;;;;;5002332;28;20483;-58
2021/11/01 02:07:50;;;;;;;8.53;6.20;;;7.70;99.90;;;;;;5003088;28;21080;-58
2021/11/01 02:10:21;;;;;;;11.60;6.67;;;7.70;99.90;;;;;;5001637;28;20424;-57
2021/11/01 02:12:57;;;;;;;9.00;6.90;;;7.70;99.90;;;;;;5007312;28;20426;-60
2021/11/01 02:15:40;;;;;;;10.57;6.90;;;7.80;99.90;;;;;;5007605;28;20451;-57
2021/11/01 02:18:07;;;;;;;8.53;6.40;;;7.80;99.90;;;;;;5005001;28;21052;-58
2021/11/01 02:20:35;;;;;;;8.90;6.37;;;7.80;99.90;;;;;;5001945;28;20439;-58
2021/11/01 02:23:25;;;;;;;10.93;6.97;;;7.80;99.90;;;;;;5002176;28;20935;-57
2021/11/01 02:25:56;;;;;;;11.20;7.10;;;7.80;99.90;;;;;;5001503;28;20427;-57
2021/11/01 02:28:31;;;;;;;11.30;6.93;;;7.90;99.90;;;;;;5003225;28;20431;-57
2021/11/01 02:30:58;;;;;;;9.30;6.80;;;7.90;99.90;;;;;;5006568;28;20427;-57
2021/11/01 02:33:25;;;;;;;10.97;7.60;;;7.90;99.90;;;;;;5006990;28;20431;-57
2021/11/01 02:35:52;;;;;;;9.53;7.20;;;7.90;99.90;;;;;;5013036;28;20473;-57
2021/11/01 02:38:21;;;;;;;9.20;7.80;;;7.90;99.90;;;;;;5010727;28;20462;-57
2021/11/01 02:40:48;;;;;;;8.57;7.13;;;7.90;99.90;;;;;;5004418;28;20895;-59
2021/11/01 02:43:14;;;;;;;12.27;7.40;;;7.90;99.90;;;;;;5007042;28;20527;-57
2021/11/01 02:45:43;;;;;;;7.33;6.13;;;7.90;99.90;;;;;;5000477;28;20462;-58
2021/11/01 02:48:10;;;;;;;9.83;6.70;;;8.00;99.90;;;;;;5003219;28;20447;-58
2021/11/01 02:50:36;;;;;;;12.43;7.27;;;8.00;99.90;;;;;;5000904;28;20432;-58
2021/11/01 02:53:02;;;;;;;9.50;7.43;;;8.00;99.90;;;;;;5014353;28;20447;-57
2021/11/01 02:55:28;;;;;;;9.33;7.20;;;8.00;99.90;;;;;;5003957;28;20451;-57
2021/11/01 02:57:54;;;;;;;14.27;7.80;;;8.00;99.90;;;;;;5001589;28;20901;-56
2021/11/01 03:00:24;;;;;;;10.47;7.80;;;8.00;99.90;;;;;;5001156;28;20649;-57
2021/11/01 03:02:51;;;;;;;12.00;7.53;;;8.00;99.90;;;;;;5001710;28;20186;-58
2021/11/01 03:05:19;;;;;;;10.87;7.10;;;8.00;99.90;;;;;;5002163;28;20470;-58
2021/11/01 03:07:48;;;;;;;11.60;7.37;;;7.90;99.90;;;;;;5002910;28;20485;-58
2021/11/01 03:10:15;;;;;;;11.80;7.80;;;8.00;99.90;;;;;;5000603;28;20431;-57
2021/11/01 03:12:44;;;;;;;8.70;7.20;;;8.00;99.90;;;;;;5004270;28;20451;-57
2021/11/01 03:15:21;;;;;;;11.70;7.70;;;8.00;99.90;;;;;;5003034;28;20498;-60
2021/11/01 03:17:51;;;;;;;14.73;7.40;;;8.00;99.90;;;;;;5002354;28;20431;-57
2021/11/01 03:20:26;;;;;;;9.80;7.00;;;8.00;99.90;;;;;;4999911;28;20431;-57
2021/11/01 03:22:56;;;;;;;11.20;7.07;;;8.00;99.90;;;;;;5002211;28;21110;-56
2021/11/01 03:25:30;;;;;;;9.17;6.93;;;8.00;99.90;;;;;;5000369;28;20553;-56
2021/11/01 03:27:59;;;;;;;12.50;7.93;;;8.00;99.90;;;;;;5002266;28;20416;-59
2021/11/01 03:30:25;;;;;;;13.87;7.80;;;8.10;99.90;;;;;;5000787;28;20423;-57
2021/11/01 03:32:52;;;;;;;8.87;7.10;;;8.10;99.90;;;;;;5002358;28;20502;-60
2021/11/01 03:35:19;;;;;;;13.40;7.70;;;8.10;99.90;;;;;;5000445;28;20455;-57
2021/11/01 03:37:46;;;;;;;9.93;7.70;;;8.20;99.90;;;;;;5000941;28;20515;-58
2021/11/01 03:40:18;;;;;;;9.60;7.20;;;8.20;99.90;;;;;;5001919;28;20666;-58
2021/11/01 03:42:45;;;;;;;9.13;7.20;;;8.20;99.90;;;;;;5000838;28;20420;-59
2021/11/01 03:45:12;;;;;;;12.53;7.50;;;8.30;99.90;;;;;;5003333;28;20466;-58
2021/11/01 03:47:43;;;;;;;10.43;8.20;;;8.30;99.90;;;;;;5003365;28;20466;-59
2021/11/01 03:50:30;;;;;;;13.10;7.83;;;8.30;99.90;;;;;;4999956;28;20435;-61
2021/11/01 03:52:56;;;;;;;9.77;7.20;;;8.30;99.90;;;;;;5001591;28;20419;-59
2021/11/01 03:55:26;;;;;;;11.20;7.40;;;8.30;99.90;;;;;;5001103;28;20451;-58
2021/11/01 03:57:51;;;;;;;10.50;7.00;;;8.30;99.90;;;;;;5000221;28;20430;-61
2021/11/01 04:00:17;;;;;;;10.70;7.70;;;8.30;99.90;;;;;;4999778;28;20519;-57
2021/11/01 04:02:47;;;;;;;10.73;6.40;;;8.30;99.90;;;;;;5001941;28;20250;-58
2021/11/01 04:05:12;;;;;;;11.90;7.50;;;8.40;99.90;;;;;;5000929;28;20210;-57
2021/11/01 04:07:39;;;;;;;10.33;7.47;;;8.50;99.90;;;;;;5001353;28;20806;-58
2021/11/01 04:10:07;;;;;;;10.80;7.67;;;8.50;99.90;;;;;;4999531;28;20188;-58
2021/11/01 04:12:33;;;;;;;11.93;8.40;;;8.60;99.90;;;;;;5001306;28;20423;-58
2021/11/01 04:15:07;;;;;;;13.13;8.10;;;8.60;99.90;;;;;;5002636;28;20530;-58
2021/11/01 04:22:45;;;;;;;9.37;6.43;;;8.70;99.90;;;;;;5000250;28;20456;-57
2021/11/01 04:25:11;;;;;;;11.03;6.30;;;8.70;99.90;;;;;;4999494;28;20486;-59
2021/11/01 04:27:38;;;;;;;7.13;6.03;;;8.80;99.90;;;;;;4999027;28;20803;-59
2021/11/01 04:30:06;;;;;;;7.60;5.73;;;8.80;99.90;;;;;;4996165;28;20431;-59
2021/11/01 04:32:38;;;;;;;4.80;4.30;;;8.90;99.90;;;;;;5001474;28;20420;-57
2021/11/01 04:35:12;;;;;;;5.80;4.50;;;9.00;99.90;;;;;;5008547;28;20895;-57
2021/11/01 04:37:39;;;;;;;6.47;3.70;;;9.10;99.90;;;;;;5008180;28;20419;-58
2021/11/01 04:53:33;;;;;;;1.03;0.80;;;9.60;99.90;;;;;;4998099;28;20454;-58
2021/11/01 04:55:59;;;;;;;1.77;1.40;;;9.70;99.90;;;;;;5008107;28;20817;-60
2021/11/01 04:58:25;;;;;;;3.57;1.80;;;9.70;99.90;;;;;;4999720;28;20458;-58
2021/11/01 05:00:52;;;;;;;2.03;1.40;;;9.70;99.90;;;;;;4999360;28;20165;-58
2021/11/01 05:03:32;;;;;;;4.10;1.00;;;9.70;99.90;;;;;;5004198;28;20169;-58
2021/11/01 05:05:58;;;;;;;0.70;0.70;;;9.70;99.90;;;;;;5017184;23;20548;-58
2021/11/01 05:08:29;;;;;;;0.70;0.70;;;9.80;99.90;;;;;;4989891;28;20522;-58
2021/11/01 05:11:00;;;;;;;5.53;1.23;;;9.70;99.90;;;;;;5008526;28;20848;-58
2021/11/01 05:13:29;;;;;;;0.80;0.80;;;9.80;99.90;;;;;;4994369;28;20435;-59
2021/11/01 05:16:04;;;;;;;0.80;0.80;;;9.70;99.90;;;;;;4989885;28;20990;-58
2021/11/01 05:18:36;;;;;;;0.70;0.70;;;9.70;99.90;;;;;;4994242;28;20982;-59
2021/11/01 05:23:44;;;;;;;1.43;0.80;;;9.70;99.90;;;;;;4996206;28;20435;-58
2021/11/01 05:26:12;;;;;;;1.00;0.80;;;9.60;99.90;;;;;;4997243;28;20439;-58
2021/11/01 05:28:46;;;;;;;1.20;0.93;;;9.60;99.90;;;;;;4998677;28;20931;-58
2021/11/01 05:34:08;;;;;;;1.27;0.70;;;9.50;99.90;;;;;;4993969;28;20423;-60
2021/11/01 05:36:34;;;;;;;0.80;0.80;;;9.50;99.90;;;;;;4998719;28;20443;-60
2021/11/01 05:39:00;;;;;;;2.50;0.80;;;9.40;99.90;;;;;;4993299;28;20435;-61
2021/11/01 05:41:26;;;;;;;0.93;0.90;;;9.40;99.90;;;;;;4994922;28;20531;-59
2021/11/01 05:43:52;;;;;;;0.67;0.67;;;9.30;99.90;;;;;;4990421;28;20525;-58
2021/11/01 05:46:18;;;;;;;1.67;1.10;;;9.30;99.90;;;;;;4986446;28;20186;-61
2021/11/01 05:48:51;;;;;;;0.90;0.83;;;9.20;99.90;;;;;;4989144;28;20432;-59
2021/11/01 05:51:19;;;;;;;1.83;1.30;;;9.20;99.90;;;;;;5006818;28;20423;-58
2021/11/01 05:53:50;;;;;;;1.73;1.23;;;9.20;99.90;;;;;;4990945;28;20768;-59
2021/11/01 06:01:55;;;;;;;;;;;;;;;;;;;;;
2021/11/01 06:04:14;;;;;;;4.03;1.03;;;9.20;99.90;;;;;;4989758;28;20707;-61
2021/11/01 06:06:54;;;;;;;;;;;;;;;;;;;;;
2021/11/01 06:14:35;;;;;;;4.07;1.40;;;9.10;99.90;;;;;;4991182;28;20523;-61
2021/11/01 06:17:00;;;;;;;2.70;1.53;;;9.10;99.90;;;;;;4989607;28;20523;-59
2021/11/01 06:19:26;;;;;;;1.03;0.93;;;9.10;99.90;;;;;;4990629;28;20424;-58
2021/11/01 06:21:53;;;;;;;1.03;0.90;;;9.10;99.90;;;;;;4987632;28;20185;-60
2021/11/01 06:27:08;;;;;;;1.43;1.03;;;9.10;99.90;;;;;;4968455;28;20900;-58
2021/11/01 06:29:48;;;;;;;0.83;0.83;;;9.00;99.90;;;;;;4988074;28;20494;-58
2021/11/01 06:32:26;;;;;;;1.97;1.20;;;9.00;99.90;;;;;;4987053;28;20835;-58
2021/11/01 06:51:30;;;;;;;1.90;1.20;;;8.90;99.90;;;;;;4986804;28;20482;-58
2021/11/01 06:53:45;;;;;;;;;;;;;;;;;;;;;
2021/11/01 06:58:47;;;;;;;0.90;0.90;;;8.80;99.90;;;;;;4988146;28;20459;-60
2021/11/01 08:22:47;;;;;;;2.30;1.30;;;8.60;99.90;;;;;;4981370;28;20543;-58
2021/11/01 08:28:12;;;;;;;;;;;;;;;;;;;;;
2021/11/01 08:38:49;;;;;;;2.10;2.00;;;8.50;99.90;;;;;;4983082;28;20239;-61
2021/11/01 08:42:08;;;;;;;3.63;2.37;;;8.40;99.90;;;;;;4985770;28;20837;-59
2021/11/01 09:13:18;;;;;;;2.30;1.20;;;8.60;99.90;;;;;;4984484;28;20501;-59
2021/11/01 09:21:34;;;;;;;2.83;1.43;;;8.70;99.90;;;;;;4985392;28;20436;-58
2021/11/01 09:24:37;;;;;;;3.17;1.40;;;8.80;99.90;;;;;;4986560;28;20436;-58
2021/11/01 09:26:54;;;;;;;1.63;1.47;;;8.80;99.90;;;;;;4983834;28;20424;-57
2021/11/01 09:42:51;;;;;;;2.50;2.10;;;8.90;99.90;;;;;;4989253;28;21022;-59
2021/11/01 09:45:19;;;;;;;4.33;1.60;;;8.90;99.90;;;;;;4985275;28;20463;-59
2021/11/01 09:47:46;;;;;;;3.57;2.40;;;8.90;99.90;;;;;;4985866;28;20524;-60
2021/11/01 09:50:16;;;;;;;3.10;1.87;;;8.90;99.90;;;;;;4987090;28;20455;-58
2021/11/01 09:52:43;;;;;;;1.40;1.30;;;8.90;99.90;;;;;;4986934;28;20439;-57
2021/11/01 09:55:39;;;;;;;4.47;1.30;;;8.90;99.90;;;;;;4985969;28;20484;-57
2021/11/01 10:00:51;;;;;;;1.83;1.57;;;8.90;99.90;;;;;;4984355;28;20463;-58
2021/11/01 10:03:17;;;;;;;2.17;1.50;;;8.90;99.90;;;;;;4982760;28;20440;-58
2021/11/01 10:05:59;;;;;;;1.70;1.33;;;9.00;99.90;;;;;;4982572;28;20193;-60
2021/11/01 10:08:26;;;;;;;3.47;2.00;;;9.00;99.90;;;;;;5001793;28;20181;-60
2021/11/01 10:10:52;;;;;;;5.07;1.80;;;9.00;99.90;;;;;;4991134;28;20994;-58
2021/11/01 10:13:17;;;;;;;2.10;1.80;;;9.00;99.90;;;;;;4989053;28;20439;-60
2021/11/01 10:18:28;;;;;;;1.97;1.20;;;9.00;99.90;;;;;;4987889;28;20207;-60
2021/11/01 10:20:59;;;;;;;2.03;1.33;;;9.00;99.90;;;;;;4986633;28;20428;-61
2021/11/01 10:23:33;;;;;;;1.40;1.30;;;9.00;99.90;;;;;;4985670;28;20438;-60
2021/11/01 10:26:12;;;;;;;1.57;1.47;;;9.00;99.90;;;;;;4988401;28;20477;-59
2021/11/01 10:28:38;;;;;;;1.97;1.40;;;9.00;99.90;;;;;;4986413;28;20417;-60
2021/11/01 10:31:10;;;;;;;5.60;1.87;;;8.90;99.90;;;;;;4985947;28;20428;-60
2021/11/01 10:33:45;;;;;;;5.27;1.53;;;8.90;99.90;;;;;;4987355;28;20441;-62
2021/11/01 10:36:32;;;;;;;2.30;1.50;;;9.00;99.90;;;;;;4987165;28;20515;-61
2021/11/01 10:39:06;;;;;;;1.83;1.40;;;9.00;99.90;;;;;;4981885;28;20428;-58
2021/11/01 10:56:49;;;;;;;2.13;1.47;;;9.00;99.90;;;;;;4925922;29;20429;-60
2021/11/01 11:12:44;;;;;;;3.50;1.70;;;8.90;99.90;;;;;;5003419;28;20422;-57
2021/11/01 11:15:13;;;;;;;2.00;1.40;;;8.90;99.90;;;;;;4999907;28;20444;-58
2021/11/01 11:23:11;;;;;;;1.60;1.50;;;8.90;99.90;;;;;;4986384;28;20427;-56
2021/11/01 11:48:11;;;;;;;6.73;3.80;;;8.90;99.90;;;;;;4983872;28;20547;-59
2021/11/01 11:50:37;;;;;;;2.23;2.03;;;8.90;99.90;;;;;;4999185;28;20419;-56
2021/11/01 11:53:14;;;;;;;4.30;3.13;;;8.90;99.90;;;;;;4981524;28;20527;-60
2021/11/01 11:55:42;;;;;;;6.10;3.27;;;8.90;99.90;;;;;;4981571;28;20451;-54
2021/11/01 11:58:13;;;;;;;3.03;2.60;;;8.90;99.90;;;;;;4985622;28;20523;-56
2021/11/01 12:00:39;;;;;;;4.83;2.47;;;8.90;99.90;;;;;;4984868;28;20451;-56
2021/11/01 12:03:18;;;;;;;2.40;2.20;;;8.90;99.90;;;;;;4977535;28;20553;-55
2021/11/01 12:05:52;;;;;;;3.53;2.10;;;9.00;99.90;;;;;;4981733;28;20467;-58
2021/11/01 12:18:52;;;;;;;3.47;2.20;;;9.00;99.90;;;;;;4988517;28;20764;-57
2021/11/01 12:21:19;;;;;;;2.20;1.97;;;9.00;99.90;;;;;;4987207;28;20448;-57
2021/11/01 12:23:45;;;;;;;2.17;1.97;;;9.00;99.90;;;;;;4986614;28;20744;-57
2021/11/01 12:26:13;;;;;;;2.30;1.70;;;9.00;99.90;;;;;;4985267;28;20490;-56
2021/11/01 12:28:41;;;;;;;2.93;2.10;;;9.00;99.90;;;;;;5002384;28;20173;-58
2021/11/01 12:31:13;;;;;;;6.80;4.17;;;9.00;99.90;;;;;;4982604;28;20615;-55
2021/11/01 12:33:42;;;;;;;3.30;2.20;;;9.00;99.90;;;;;;4980231;28;20550;-60
2021/11/01 12:36:09;;;;;;;2.10;2.00;;;9.00;99.90;;;;;;4976792;28;20467;-55
2021/11/01 12:38:42;;;;;;;2.07;1.93;;;9.00;99.90;;;;;;4981099;28;20531;-54
2021/11/01 12:41:18;;;;;;;2.57;2.40;;;9.00;99.90;;;;;;4988676;28;20447;-58
2021/11/01 12:46:48;;;;;;;2.90;2.40;;;9.00;99.90;;;;;;4975952;28;20521;-55
2021/11/01 12:57:28;;;;;;;15.87;7.40;;;9.10;99.90;;;;;;4986221;28;20529;-57
2021/11/01 12:59:56;;;;;;;8.90;4.67;;;9.10;99.90;;;;;;4980470;28;20661;-55
2021/11/01 13:02:32;;;;;;;7.13;3.60;;;9.10;99.90;;;;;;4984163;28;21129;-54
2021/11/01 13:05:07;;;;;;;3.83;2.73;;;9.10;99.90;;;;;;4979747;28;20462;-56
2021/11/01 13:10:23;;;;;;;4.80;2.57;;;9.10;99.90;;;;;;4980085;28;20435;-58
2021/11/01 13:18:29;;;;;;;3.63;3.33;;;9.10;99.90;;;;;;4984519;28;20470;-57
2021/11/01 13:21:01;;;;;;;4.03;2.70;;;9.10;99.90;;;;;;4985991;28;20428;-60
2021/11/01 13:23:32;;;;;;;3.03;2.77;;;9.10;99.90;;;;;;4982912;28;20432;-58
2021/11/01 13:37:37;;;;;;;3.17;2.97;;;9.10;99.90;;;;;;4977393;28;20947;-60
2021/11/01 13:40:05;;;;;;;3.70;2.60;;;9.20;99.90;;;;;;4985307;28;20440;-58
2021/11/01 13:42:32;;;;;;;2.90;2.60;;;9.20;99.90;;;;;;4983756;28;20531;-57
2021/11/01 13:45:14;;;;;;;2.77;2.57;;;9.20;99.90;;;;;;4978259;28;21009;-58
2021/11/01 13:47:41;;;;;;;2.40;2.20;;;9.20;99.90;;;;;;4976109;28;20522;-57
2021/11/01 13:50:07;;;;;;;3.03;2.70;;;9.20;99.90;;;;;;4970536;28;20440;-59
2021/11/01 13:55:21;;;;;;;6.40;3.00;;;9.20;99.90;;;;;;4980680;28;20486;-57
2021/11/01 13:58:04;;;;;;;2.87;2.57;;;9.30;99.90;;;;;;4983979;28;20898;-57
2021/11/01 14:16:55;;;;;;;2.67;2.47;;;9.40;99.90;;;;;;4975876;28;20513;-54
2021/11/01 14:36:08;;;;;;;4.43;3.20;;;9.40;99.90;;;;;;4937936;28;20449;-59
2021/11/01 15:04:44;;;;;;;3.93;3.53;;;9.40;99.90;;;;;;4978750;28;20439;-55
2021/11/01 15:20:04;;;;;;;16.80;9.63;;;9.50;99.90;;;;;;4972641;28;20447;-58
2021/11/01 16:18:11;;;;;;;11.27;6.50;;;9.10;99.90;;;;;;4975371;28;22032;-57
2021/11/01 16:20:37;;;;;;;10.30;6.90;;;9.10;99.90;;;;;;4984310;28;20460;-60
2021/11/01 16:25:28;;;;;;;12.70;8.87;;;9.10;99.90;;;;;;4975079;28;20220;-60
2021/11/01 16:27:54;;;;;;;8.67;7.77;;;9.10;99.90;;;;;;4983689;28;20327;-57
2021/11/01 16:30:23;;;;;;;12.10;9.07;;;9.10;99.90;;;;;;4993538;28;20648;-55
2021/11/01 16:32:57;;;;;;;13.67;9.87;;;9.10;99.90;;;;;;4982414;28;20880;-57
2021/11/01 16:35:31;;;;;;;13.87;8.97;;;9.00;99.90;;;;;;4987123;28;20458;-57
2021/11/01 16:38:22;;;;;;;17.63;9.33;;;9.10;99.90;;;;;;4988981;28;20432;-55
2021/11/01 16:40:44;;;;;;;9.43;6.90;;;9.00;99.90;;;;;;4982852;28;20439;-57
2021/11/01 16:43:14;;;;;;;12.70;8.00;;;9.00;99.90;;;;;;4970347;28;20449;-55
2021/11/01 16:45:41;;;;;;;9.27;6.40;;;9.00;99.90;;;;;;4989009;28;20471;-56
2021/11/01 16:48:07;;;;;;;6.27;5.63;;;9.00;99.90;;;;;;4993759;28;20425;-56
2021/11/01 16:50:34;;;;;;;6.83;5.97;;;9.00;99.90;;;;;;4995341;28;20501;-58
2021/11/01 16:53:00;;;;;;;11.67;7.00;;;9.00;99.90;;;;;;5007545;28;20831;-55
2021/11/01 16:55:38;;;;;;;7.73;6.93;;;8.90;99.90;;;;;;4989824;28;20551;-57
2021/11/01 16:58:18;;;;;;;9.27;6.80;;;8.90;99.90;;;;;;4989792;28;20510;-57
2021/11/01 17:00:57;;;;;;;9.50;6.93;;;8.90;99.90;;;;;;4989849;28;20419;-57
2021/11/01 17:03:44;;;;;;;8.13;6.93;;;8.90;99.90;;;;;;4989595;28;20447;-57
2021/11/01 17:09:21;;;;;;;9.67;7.70;;;8.90;99.90;;;;;;5022375;28;20417;-59
2021/11/01 17:25:23;;;;;;;13.00;8.63;;;8.90;99.90;;;;;;5004714;28;20554;-60
2021/11/01 17:36:37;;;;;;;11.80;9.97;;;8.80;99.90;;;;;;5010783;28;20435;-61
2021/11/01 18:37:51;;;;;;;;;;;;;;;;;;;;;
2021/11/01 18:53:05;;;;;;;12.40;10.10;;;8.10;99.90;;;;;;5003957;28;20515;-60
2021/11/01 18:55:33;;;;;;;15.77;11.97;;;8.10;99.90;;;;;;5002060;28;20451;-60
2021/11/01 18:58:03;;;;;;;15.13;10.83;;;8.00;99.90;;;;;;5005283;28;20791;-60
2021/11/01 19:00:33;;;;;;;16.50;10.80;;;8.00;99.90;;;;;;5001918;28;20452;-60
2021/11/01 19:03:00;;;;;;;13.03;10.23;;;8.00;99.90;;;;;;5002021;28;20434;-60
2021/11/01 19:05:34;;;;;;;15.97;11.70;;;8.10;99.90;;;;;;4999058;28;20473;-60
2021/11/01 19:10:54;;;;;;;17.83;11.30;;;8.10;99.90;;;;;;5003879;28;20913;-61
2021/11/01 20:05:59;;;;;;;9.30;7.27;;;7.80;99.90;;;;;;4996107;28;20463;-60
2021/11/01 21:26:23;;;;;;;10.40;6.93;;;7.00;99.90;;;;;;4997245;28;20833;-60
2021/11/01 21:28:52;;;;;;;9.07;6.37;;;7.00;99.90;;;;;;4998521;28;20485;-61
2021/11/01 21:31:20;;;;;;;9.80;6.53;;;7.00;99.90;;;;;;4997305;28;20415;-60
2021/11/01 21:33:50;;;;;;;9.47;7.00;;;6.90;99.90;;;;;;5000550;28;20428;-59
2021/11/01 21:36:23;;;;;;;9.40;7.53;;;6.90;99.90;;;;;;5000605;28;20531;-57
2021/11/01 21:38:54;;;;;;;9.70;7.30;;;6.90;99.90;;;;;;4992541;28;20439;-59
2021/11/01 21:41:20;;;;;;;10.97;7.27;;;6.90;99.90;;;;;;4995721;28;20446;-59
2021/11/01 21:43:46;;;;;;;9.17;6.70;;;6.90;99.90;;;;;;4994164;28;20551;-59
2021/11/01 21:46:12;;;;;;;10.93;8.00;;;6.90;99.90;;;;;;4999142;28;20617;-59
2021/11/01 21:48:38;;;;;;;12.20;7.83;;;6.80;99.90;;;;;;4996224;28;20534;-58
2021/11/01 21:51:03;;;;;;;9.97;6.73;;;6.80;99.90;;;;;;4994494;28;20196;-58
2021/11/01 21:53:31;;;;;;;11.70;7.30;;;6.80;99.90;;;;;;5000327;28;20180;-61
2021/11/01 21:55:57;;;;;;;17.00;7.93;;;6.80;99.90;;;;;;5003908;28;20308;-59
2021/11/01 22:17:29;;;;;;;13.57;9.70;;;6.60;99.90;;;;;;4998227;28;20504;-59
2021/11/01 22:25:16;;;;;;;10.67;6.37;;;6.60;99.90;;;;;;5000415;28;20215;-60
2021/11/01 22:33:22;;;;;;;11.27;6.50;;;6.60;99.90;;;;;;5003345;28;20979;-58
2021/11/01 22:38:51;;;;;;;10.67;6.43;;;6.60;99.90;;;;;;5001931;28;20434;-60
2021/11/01 22:41:42;;;;;;;15.47;7.83;;;6.60;99.90;;;;;;4998658;28;20785;-59
2021/11/01 22:57:54;;;;;;;54.03;9.87;;;6.60;99.90;;;;;;4999304;28;20519;-61
2021/11/01 23:00:29;;;;;;;19.03;9.00;;;6.60;99.90;;;;;;5000902;28;20435;-58
2021/11/01 23:03:00;;;;;;;18.87;8.43;;;6.50;99.90;;;;;;4995171;28;20517;-59
2021/11/01 23:33:21;;;;;;;24.83;10.53;;;6.50;99.90;;;;;;5002089;28;20464;-52
2021/11/01 23:35:51;;;;;;;19.20;10.70;;;6.50;99.90;;;;;;5001488;28;20456;-54
2021/11/01 23:38:17;;;;;;;15.13;9.57;;;6.50;99.90;;;;;;5003123;28;20427;-54
2021/11/01 23:40:44;;;;;;;16.47;7.90;;;6.50;99.90;;;;;;4997831;28;20935;-52
2021/11/01 23:43:13;;;;;;;12.00;7.40;;;6.50;99.90;;;;;;5001472;28;20423;-54
2021/11/01 23:45:43;;;;;;;10.00;6.20;;;6.50;99.90;;;;;;4995757;28;20536;-55
2021/11/01 23:48:10;;;;;;;14.03;6.80;;;6.50;99.90;;;;;;4999555;28;20415;-54
2021/11/01 23:50:36;;;;;;;9.80;5.67;;;6.50;99.90;;;;;;5002062;28;20629;-52
2021/11/01 23:53:13;;;;;;;8.90;6.53;;;6.40;99.90;;;;;;4999377;28;20502;-54
2021/11/01 23:55:40;;;;;;;11.73;7.10;;;6.40;99.90;;;;;;5000586;28;20473;-54
2021/11/01 23:58:06;;;;;;;12.10;6.50;;;6.40;99.90;;;;;;4997893;28;20679;-53
